CYGR

Îles-de-la-Madeleine Airport

Îles-de-la-Madeleine, Quebec, Canada
METAR CYGR 251400Z 32005KT 260V360 20SM FEW040 10/M02 A3070 RMK SC1 SC TR SLP399
Observed Flight Rules
Sep-25 @ 14:00 UTC (an hour ago) Visual Flight Rules
Wind Visibility Clouds
320° at 5 knots 20 miles
  • Few at 4,000' AGL
Temperatures Readings
Current 10°C / 50°F
Dewpoint -2°C / 28°F
Humidity 43%
Altimeter 30.7" Hg
Pressure 1039.9 hPa
Elevation 10
METAR CYGR 251400Z 32005KT 260V360 20SM FEW040 10/M02 A3070 RMK SC1 SC TR SLP399
Observed Flight Rules
Sep-25 @ 14:00 UTC
(an hour ago)
VFR
Wind Visibility
320° at 5 knots 20 miles
Clouds
  • Few at 4,000' AGL
Temperature Dewpoint
10°C / 50°F -2°C / 28°F
Humidity Altimeter Pressure
43% 30.7" Hg 1039.9 hPa